The latest weather and runway conditions for major airports within the Toronto FIR.

CYYZ - Toronto-Lester B. Pearson International
CYYZ 120600Z 29007KT 15SM OVC049 M00/M02 A3002 RMK SC8 SLP174
Suggested Runways: Departures: 23, Arrivals: 24R
CYOW - Ottawa Macdonald-Cartier International
CYOW 120600Z 31004KT 10SM OVC070 M07/M09 A3000 RMK AC8 SLP168
Suggested Runway: 32
CYTZ - Billy Bishop Toronto City
CYTZ 120600Z AUTO 30008KT 9SM OVC050 01/M02 A3003 RMK SLP173
Suggested Runway: 26
CYXU - London International
CYXU 120600Z 27007KT 8SM -FZDZ FEW012 OVC023 M02/M03 A3004 RMK SF1SC7 SLP187
Suggested Runway: 33
CYHM - John C. Munro Hamilton International
CYHM 120600Z 25007KT 8SM -SN FEW006 SCT042 M04/M04 A3002 RMK SF2SC2 SLP177
Suggested Runway: 30
CYKF - Region of Waterloo International
CYKF 120600Z AUTO 27006KT 4SM BR BKN033 OVC040 M02/M03 A3002 RMK SLP181
Suggested Runway: 26
CYAM - Sault Ste. Marie
CYAM 120600Z 09003KT 060V130 15SM FEW035 SCT160 BKN240 M11/M12 A3005 RMK SC1AC2CI3 FROIN SLP188
Suggested Runway: 12
CYTR - Canadian Forces Base Trenton
CYTR 120654Z 32003KT 4SM BR OVC021 M02/M03 A3002 RMK SC8 SLP171
Suggested Runway: 24
CYKZ - Toronto/Buttonville Municipal
CYKZ 120600Z 33005KT 12SM FEW011 OVC044 M00/M03 A3000 RMK SF1SC8 SF TR SLP171
Suggested Runway: 33
CYOO - Toronto/Oshawa Executive
CYOO 120600Z AUTO 34009KT 4SM BR OVC050 M01/M02 A3001 RMK SLP169
Suggested Runway: 30

Toronto FIR NOTAMS